sensor_id;sensor_type;location;lat;lon;timestamp;P1;durP1;ratioP1;P2;durP2;ratioP2
78908;SDS011;68298;37.368;127.108;2023-05-10T00:01:11;33.45;;;19.00;;
78908;SDS011;68298;37.368;127.108;2023-05-10T00:03:41;36.42;;;20.05;;
78908;SDS011;68298;37.368;127.108;2023-05-10T00:06:12;37.53;;;19.27;;
78908;SDS011;68298;37.368;127.108;2023-05-10T00:08:44;43.28;;;20.98;;
78908;SDS011;68298;37.368;127.108;2023-05-10T00:11:15;42.60;;;20.23;;
78908;SDS011;68298;37.368;127.108;2023-05-10T00:13:49;42.28;;;20.70;;
78908;SDS011;68298;37.368;127.108;2023-05-10T00:16:19;48.42;;;20.88;;
78908;SDS011;68298;37.368;127.108;2023-05-10T00:18:51;44.65;;;20.10;;
78908;SDS011;68298;37.368;127.108;2023-05-10T00:21:21;38.30;;;19.20;;
78908;SDS011;68298;37.368;127.108;2023-05-10T00:23:52;40.63;;;19.20;;
78908;SDS011;68298;37.368;127.108;2023-05-10T00:26:22;43.38;;;18.98;;
78908;SDS011;68298;37.368;127.108;2023-05-10T00:28:55;38.13;;;19.95;;
78908;SDS011;68298;37.368;127.108;2023-05-10T00:31:26;53.60;;;21.48;;
78908;SDS011;68298;37.368;127.108;2023-05-10T00:33:57;45.08;;;19.55;;
78908;SDS011;68298;37.368;127.108;2023-05-10T00:36:27;38.88;;;18.73;;
78908;SDS011;68298;37.368;127.108;2023-05-10T00:38:58;39.63;;;18.33;;
78908;SDS011;68298;37.368;127.108;2023-05-10T00:41:29;35.63;;;17.73;;
78908;SDS011;68298;37.368;127.108;2023-05-10T00:44:03;31.08;;;16.63;;
78908;SDS011;68298;37.368;127.108;2023-05-10T00:46:34;37.78;;;17.88;;
78908;SDS011;68298;37.368;127.108;2023-05-10T00:49:06;34.00;;;16.85;;
78908;SDS011;68298;37.368;127.108;2023-05-10T00:51:36;51.38;;;17.95;;
78908;SDS011;68298;37.368;127.108;2023-05-10T00:54:09;74.22;;;17.38;;
78908;SDS011;68298;37.368;127.108;2023-05-10T00:56:44;42.60;;;16.80;;
78908;SDS011;68298;37.368;127.108;2023-05-10T00:59:18;45.70;;;15.95;;
78908;SDS011;68298;37.368;127.108;2023-05-10T01:01:49;38.00;;;15.55;;
78908;SDS011;68298;37.368;127.108;2023-05-10T01:04:20;40.38;;;15.85;;
78908;SDS011;68298;37.368;127.108;2023-05-10T01:06:54;34.78;;;16.38;;
78908;SDS011;68298;37.368;127.108;2023-05-10T01:09:26;37.00;;;16.25;;
78908;SDS011;68298;37.368;127.108;2023-05-10T01:11:57;36.10;;;14.85;;
78908;SDS011;68298;37.368;127.108;2023-05-10T01:14:29;30.08;;;14.82;;
78908;SDS011;68298;37.368;127.108;2023-05-10T01:16:59;27.92;;;14.90;;
78908;SDS011;68298;37.368;127.108;2023-05-10T01:19:31;30.63;;;14.57;;
78908;SDS011;68298;37.368;127.108;2023-05-10T01:25:19;30.58;;;15.30;;
78908;SDS011;68298;37.368;127.108;2023-05-10T01:28:17;36.00;;;15.20;;
78908;SDS011;68298;37.368;127.108;2023-05-10T01:36:08;30.15;;;13.45;;
78908;SDS011;68298;37.368;127.108;2023-05-10T01:39:01;32.38;;;14.32;;
78908;SDS011;68298;37.368;127.108;2023-05-10T01:47:15;27.40;;;13.48;;
78908;SDS011;68298;37.368;127.108;2023-05-10T01:49:54;30.90;;;12.50;;
78908;SDS011;68298;37.368;127.108;2023-05-10T01:52:26;29.02;;;13.52;;
78908;SDS011;68298;37.368;127.108;2023-05-10T01:55:04;23.50;;;12.73;;
78908;SDS011;68298;37.368;127.108;2023-05-10T01:57:37;24.10;;;12.32;;
78908;SDS011;68298;37.368;127.108;2023-05-10T02:00:12;24.30;;;12.05;;
78908;SDS011;68298;37.368;127.108;2023-05-10T02:02:47;23.60;;;12.60;;
78908;SDS011;68298;37.368;127.108;2023-05-10T02:05:20;25.50;;;12.82;;
78908;SDS011;68298;37.368;127.108;2023-05-10T02:07:53;23.98;;;12.32;;
78908;SDS011;68298;37.368;127.108;2023-05-10T02:10:25;24.37;;;11.97;;
78908;SDS011;68298;37.368;127.108;2023-05-10T02:12:58;21.35;;;11.85;;
78908;SDS011;68298;37.368;127.108;2023-05-10T02:15:32;19.77;;;11.18;;
78908;SDS011;68298;37.368;127.108;2023-05-10T02:18:04;20.52;;;10.95;;
78908;SDS011;68298;37.368;127.108;2023-05-10T02:20:35;21.60;;;10.82;;
78908;SDS011;68298;37.368;127.108;2023-05-10T02:23:08;23.30;;;11.30;;
78908;SDS011;68298;37.368;127.108;2023-05-10T02:25:39;22.02;;;11.00;;
78908;SDS011;68298;37.368;127.108;2023-05-10T02:28:13;22.73;;;10.73;;
78908;SDS011;68298;37.368;127.108;2023-05-10T02:30:45;17.58;;;9.90;;
78908;SDS011;68298;37.368;127.108;2023-05-10T02:33:17;20.67;;;11.82;;
78908;SDS011;68298;37.368;127.108;2023-05-10T02:35:51;22.40;;;10.88;;
78908;SDS011;68298;37.368;127.108;2023-05-10T02:38:22;21.50;;;11.13;;
78908;SDS011;68298;37.368;127.108;2023-05-10T02:40:56;18.98;;;10.32;;
78908;SDS011;68298;37.368;127.108;2023-05-10T02:43:28;17.48;;;9.57;;
78908;SDS011;68298;37.368;127.108;2023-05-10T02:46:02;19.65;;;10.13;;
78908;SDS011;68298;37.368;127.108;2023-05-10T02:48:34;17.92;;;10.32;;
78908;SDS011;68298;37.368;127.108;2023-05-10T02:51:07;17.98;;;10.50;;
78908;SDS011;68298;37.368;127.108;2023-05-10T02:53:42;17.80;;;10.52;;
78908;SDS011;68298;37.368;127.108;2023-05-10T02:56:20;16.60;;;9.63;;
78908;SDS011;68298;37.368;127.108;2023-05-10T02:59:01;19.67;;;10.38;;
78908;SDS011;68298;37.368;127.108;2023-05-10T03:01:32;21.17;;;11.50;;
78908;SDS011;68298;37.368;127.108;2023-05-10T03:04:03;19.10;;;10.85;;
78908;SDS011;68298;37.368;127.108;2023-05-10T03:06:34;18.95;;;9.63;;
78908;SDS011;68298;37.368;127.108;2023-05-10T03:09:05;18.35;;;10.48;;
78908;SDS011;68298;37.368;127.108;2023-05-10T03:20:29;15.35;;;9.10;;
78908;SDS011;68298;37.368;127.108;2023-05-10T03:23:13;18.17;;;9.80;;
78908;SDS011;68298;37.368;127.108;2023-05-10T03:25:46;16.50;;;9.40;;
78908;SDS011;68298;37.368;127.108;2023-05-10T03:28:20;22.80;;;10.43;;
78908;SDS011;68298;37.368;127.108;2023-05-10T03:30:54;20.55;;;9.90;;
78908;SDS011;68298;37.368;127.108;2023-05-10T03:33:25;18.88;;;9.25;;
78908;SDS011;68298;37.368;127.108;2023-05-10T03:35:56;17.50;;;10.05;;
78908;SDS011;68298;37.368;127.108;2023-05-10T03:38:26;18.30;;;8.98;;
78908;SDS011;68298;37.368;127.108;2023-05-10T03:40:57;15.95;;;8.57;;
78908;SDS011;68298;37.368;127.108;2023-05-10T03:43:28;21.25;;;9.35;;
78908;SDS011;68298;37.368;127.108;2023-05-10T03:45:58;16.25;;;8.60;;
78908;SDS011;68298;37.368;127.108;2023-05-10T03:48:31;18.83;;;9.27;;
78908;SDS011;68298;37.368;127.108;2023-05-10T03:51:02;23.88;;;9.73;;
78908;SDS011;68298;37.368;127.108;2023-05-10T03:53:33;23.65;;;9.10;;
78908;SDS011;68298;37.368;127.108;2023-05-10T03:56:04;17.63;;;8.45;;
78908;SDS011;68298;37.368;127.108;2023-05-10T03:58:35;177.15;;;83.47;;
78908;SDS011;68298;37.368;127.108;2023-05-10T04:01:06;74.72;;;35.15;;
78908;SDS011;68298;37.368;127.108;2023-05-10T04:03:37;73.57;;;28.88;;
78908;SDS011;68298;37.368;127.108;2023-05-10T04:06:08;66.68;;;25.05;;
78908;SDS011;68298;37.368;127.108;2023-05-10T04:08:40;61.15;;;21.25;;
78908;SDS011;68298;37.368;127.108;2023-05-10T04:11:11;47.80;;;22.08;;
78908;SDS011;68298;37.368;127.108;2023-05-10T04:13:43;46.33;;;21.98;;
78908;SDS011;68298;37.368;127.108;2023-05-10T04:16:13;36.70;;;17.38;;
78908;SDS011;68298;37.368;127.108;2023-05-10T04:18:44;37.53;;;16.63;;
78908;SDS011;68298;37.368;127.108;2023-05-10T04:21:15;32.33;;;15.30;;
78908;SDS011;68298;37.368;127.108;2023-05-10T04:23:45;35.25;;;14.73;;
78908;SDS011;68298;37.368;127.108;2023-05-10T04:26:16;26.50;;;14.18;;
78908;SDS011;68298;37.368;127.108;2023-05-10T04:28:47;31.52;;;14.85;;
78908;SDS011;68298;37.368;127.108;2023-05-10T04:31:17;33.63;;;16.65;;
78908;SDS011;68298;37.368;127.108;2023-05-10T04:33:48;30.92;;;15.15;;
78908;SDS011;68298;37.368;127.108;2023-05-10T04:36:19;33.75;;;15.30;;
78908;SDS011;68298;37.368;127.108;2023-05-10T04:38:50;49.42;;;14.10;;
78908;SDS011;68298;37.368;127.108;2023-05-10T04:41:21;31.25;;;12.98;;
78908;SDS011;68298;37.368;127.108;2023-05-10T04:43:54;31.90;;;13.23;;
78908;SDS011;68298;37.368;127.108;2023-05-10T04:46:25;26.38;;;12.82;;
78908;SDS011;68298;37.368;127.108;2023-05-10T04:48:55;26.55;;;11.57;;
78908;SDS011;68298;37.368;127.108;2023-05-10T04:51:25;25.40;;;12.05;;
78908;SDS011;68298;37.368;127.108;2023-05-10T04:53:56;21.88;;;11.75;;
78908;SDS011;68298;37.368;127.108;2023-05-10T04:56:33;23.38;;;12.38;;
78908;SDS011;68298;37.368;127.108;2023-05-10T04:59:03;23.60;;;11.05;;
78908;SDS011;68298;37.368;127.108;2023-05-10T05:01:34;21.23;;;11.02;;
78908;SDS011;68298;37.368;127.108;2023-05-10T05:04:04;23.05;;;10.57;;
78908;SDS011;68298;37.368;127.108;2023-05-10T05:06:36;21.98;;;10.70;;
78908;SDS011;68298;37.368;127.108;2023-05-10T05:09:06;22.48;;;10.95;;
78908;SDS011;68298;37.368;127.108;2023-05-10T05:11:39;15.23;;;9.38;;
78908;SDS011;68298;37.368;127.108;2023-05-10T05:14:09;19.95;;;10.05;;
78908;SDS011;68298;37.368;127.108;2023-05-10T05:16:39;15.70;;;9.55;;
78908;SDS011;68298;37.368;127.108;2023-05-10T05:19:10;18.30;;;9.63;;
78908;SDS011;68298;37.368;127.108;2023-05-10T05:21:41;16.02;;;9.02;;
78908;SDS011;68298;37.368;127.108;2023-05-10T05:24:12;14.55;;;8.57;;
78908;SDS011;68298;37.368;127.108;2023-05-10T05:26:43;17.88;;;9.18;;
78908;SDS011;68298;37.368;127.108;2023-05-10T05:29:13;15.13;;;8.68;;
78908;SDS011;68298;37.368;127.108;2023-05-10T05:31:45;12.30;;;7.60;;
78908;SDS011;68298;37.368;127.108;2023-05-10T05:34:15;14.18;;;7.90;;
78908;SDS011;68298;37.368;127.108;2023-05-10T05:36:46;13.02;;;7.35;;
78908;SDS011;68298;37.368;127.108;2023-05-10T05:39:17;12.40;;;7.35;;
78908;SDS011;68298;37.368;127.108;2023-05-10T05:41:47;13.55;;;7.68;;
78908;SDS011;68298;37.368;127.108;2023-05-10T05:44:18;11.35;;;7.68;;
78908;SDS011;68298;37.368;127.108;2023-05-10T05:46:48;12.48;;;7.63;;
78908;SDS011;68298;37.368;127.108;2023-05-10T05:49:19;12.00;;;6.88;;
78908;SDS011;68298;37.368;127.108;2023-05-10T05:51:50;12.38;;;6.97;;
78908;SDS011;68298;37.368;127.108;2023-05-10T05:54:20;10.68;;;7.07;;
78908;SDS011;68298;37.368;127.108;2023-05-10T05:56:53;9.05;;;5.70;;
78908;SDS011;68298;37.368;127.108;2023-05-10T05:59:28;11.07;;;6.53;;
78908;SDS011;68298;37.368;127.108;2023-05-10T06:01:59;9.98;;;6.40;;
78908;SDS011;68298;37.368;127.108;2023-05-10T06:04:29;11.15;;;6.35;;
78908;SDS011;68298;37.368;127.108;2023-05-10T06:07:00;10.95;;;6.43;;
78908;SDS011;68298;37.368;127.108;2023-05-10T06:09:31;10.07;;;6.18;;
78908;SDS011;68298;37.368;127.108;2023-05-10T06:12:01;12.27;;;6.00;;
78908;SDS011;68298;37.368;127.108;2023-05-10T06:14:32;8.38;;;6.18;;
78908;SDS011;68298;37.368;127.108;2023-05-10T06:17:02;10.52;;;6.65;;
78908;SDS011;68298;37.368;127.108;2023-05-10T06:19:34;8.05;;;5.63;;
78908;SDS011;68298;37.368;127.108;2023-05-10T06:22:05;10.27;;;5.57;;
78908;SDS011;68298;37.368;127.108;2023-05-10T06:24:36;11.57;;;6.18;;
78908;SDS011;68298;37.368;127.108;2023-05-10T06:27:06;8.52;;;5.70;;
78908;SDS011;68298;37.368;127.108;2023-05-10T06:29:37;9.70;;;6.03;;
78908;SDS011;68298;37.368;127.108;2023-05-10T06:32:08;8.68;;;5.38;;
78908;SDS011;68298;37.368;127.108;2023-05-10T06:34:38;9.82;;;5.78;;
78908;SDS011;68298;37.368;127.108;2023-05-10T06:37:09;8.75;;;5.10;;
78908;SDS011;68298;37.368;127.108;2023-05-10T06:39:40;6.57;;;5.07;;
78908;SDS011;68298;37.368;127.108;2023-05-10T06:42:10;8.05;;;5.72;;
78908;SDS011;68298;37.368;127.108;2023-05-10T06:44:45;6.28;;;4.78;;
78908;SDS011;68298;37.368;127.108;2023-05-10T06:47:15;6.75;;;5.43;;
78908;SDS011;68298;37.368;127.108;2023-05-10T06:49:46;10.93;;;5.05;;
78908;SDS011;68298;37.368;127.108;2023-05-10T06:52:16;6.43;;;4.60;;
78908;SDS011;68298;37.368;127.108;2023-05-10T06:54:47;9.07;;;5.13;;
78908;SDS011;68298;37.368;127.108;2023-05-10T06:57:18;9.15;;;5.32;;
78908;SDS011;68298;37.368;127.108;2023-05-10T06:59:58;6.10;;;4.97;;
78908;SDS011;68298;37.368;127.108;2023-05-10T07:02:29;6.90;;;4.95;;
78908;SDS011;68298;37.368;127.108;2023-05-10T07:05:00;7.57;;;4.93;;
78908;SDS011;68298;37.368;127.108;2023-05-10T07:07:31;7.30;;;5.30;;
78908;SDS011;68298;37.368;127.108;2023-05-10T07:10:02;6.90;;;4.53;;
78908;SDS011;68298;37.368;127.108;2023-05-10T07:12:33;5.60;;;4.47;;
78908;SDS011;68298;37.368;127.108;2023-05-10T07:15:03;5.97;;;4.30;;
78908;SDS011;68298;37.368;127.108;2023-05-10T07:17:35;6.75;;;4.97;;
78908;SDS011;68298;37.368;127.108;2023-05-10T07:20:05;7.03;;;4.65;;
78908;SDS011;68298;37.368;127.108;2023-05-10T07:22:36;6.20;;;4.47;;
78908;SDS011;68298;37.368;127.108;2023-05-10T07:25:07;5.95;;;4.22;;
78908;SDS011;68298;37.368;127.108;2023-05-10T07:27:38;7.07;;;5.13;;
78908;SDS011;68298;37.368;127.108;2023-05-10T07:30:09;6.22;;;4.30;;
78908;SDS011;68298;37.368;127.108;2023-05-10T07:32:40;7.72;;;4.60;;
78908;SDS011;68298;37.368;127.108;2023-05-10T07:35:11;7.13;;;4.38;;
78908;SDS011;68298;37.368;127.108;2023-05-10T07:37:42;8.98;;;4.35;;
78908;SDS011;68298;37.368;127.108;2023-05-10T07:40:12;5.47;;;4.13;;
78908;SDS011;68298;37.368;127.108;2023-05-10T07:42:42;5.78;;;4.10;;
78908;SDS011;68298;37.368;127.108;2023-05-10T07:45:13;8.10;;;5.07;;
78908;SDS011;68298;37.368;127.108;2023-05-10T07:47:44;5.25;;;4.40;;
78908;SDS011;68298;37.368;127.108;2023-05-10T07:50:15;6.43;;;4.22;;
78908;SDS011;68298;37.368;127.108;2023-05-10T07:52:45;7.25;;;4.85;;
78908;SDS011;68298;37.368;127.108;2023-05-10T07:55:18;6.68;;;4.57;;
78908;SDS011;68298;37.368;127.108;2023-05-10T07:57:50;5.80;;;4.05;;
78908;SDS011;68298;37.368;127.108;2023-05-10T08:00:20;6.30;;;4.45;;
78908;SDS011;68298;37.368;127.108;2023-05-10T08:02:51;5.72;;;4.30;;
78908;SDS011;68298;37.368;127.108;2023-05-10T08:05:22;6.07;;;4.60;;
78908;SDS011;68298;37.368;127.108;2023-05-10T08:07:53;5.65;;;4.35;;
78908;SDS011;68298;37.368;127.108;2023-05-10T08:10:23;5.50;;;4.35;;
78908;SDS011;68298;37.368;127.108;2023-05-10T08:12:54;6.25;;;4.25;;
78908;SDS011;68298;37.368;127.108;2023-05-10T08:15:25;5.93;;;4.30;;
78908;SDS011;68298;37.368;127.108;2023-05-10T08:17:55;5.65;;;4.10;;
78908;SDS011;68298;37.368;127.108;2023-05-10T08:20:26;8.57;;;4.65;;
78908;SDS011;68298;37.368;127.108;2023-05-10T08:22:56;4.93;;;4.15;;
78908;SDS011;68298;37.368;127.108;2023-05-10T08:25:27;5.55;;;4.15;;
78908;SDS011;68298;37.368;127.108;2023-05-10T08:27:57;6.88;;;4.55;;
78908;SDS011;68298;37.368;127.108;2023-05-10T08:30:28;6.20;;;4.68;;
78908;SDS011;68298;37.368;127.108;2023-05-10T08:32:59;6.07;;;4.75;;
78908;SDS011;68298;37.368;127.108;2023-05-10T08:35:30;5.82;;;4.20;;
78908;SDS011;68298;37.368;127.108;2023-05-10T08:38:02;6.20;;;4.80;;
78908;SDS011;68298;37.368;127.108;2023-05-10T08:40:33;7.07;;;4.32;;
78908;SDS011;68298;37.368;127.108;2023-05-10T08:43:07;8.85;;;5.05;;
78908;SDS011;68298;37.368;127.108;2023-05-10T08:45:39;5.50;;;4.55;;
78908;SDS011;68298;37.368;127.108;2023-05-10T08:48:16;6.38;;;4.43;;
78908;SDS011;68298;37.368;127.108;2023-05-10T08:50:48;7.63;;;4.95;;
78908;SDS011;68298;37.368;127.108;2023-05-10T08:53:21;6.38;;;4.80;;
78908;SDS011;68298;37.368;127.108;2023-05-10T08:55:57;5.97;;;4.55;;
78908;SDS011;68298;37.368;127.108;2023-05-10T08:58:28;7.30;;;4.53;;
78908;SDS011;68298;37.368;127.108;2023-05-10T09:01:00;9.00;;;5.32;;
78908;SDS011;68298;37.368;127.108;2023-05-10T09:03:31;8.27;;;5.03;;
78908;SDS011;68298;37.368;127.108;2023-05-10T09:06:02;9.48;;;5.93;;
78908;SDS011;68298;37.368;127.108;2023-05-10T09:08:32;7.78;;;5.32;;
78908;SDS011;68298;37.368;127.108;2023-05-10T09:11:03;7.75;;;4.70;;
78908;SDS011;68298;37.368;127.108;2023-05-10T09:13:35;6.22;;;5.05;;
78908;SDS011;68298;37.368;127.108;2023-05-10T09:16:06;9.23;;;5.50;;
78908;SDS011;68298;37.368;127.108;2023-05-10T09:18:48;6.70;;;5.13;;
78908;SDS011;68298;37.368;127.108;2023-05-10T09:21:19;8.15;;;5.43;;
78908;SDS011;68298;37.368;127.108;2023-05-10T09:23:50;7.40;;;5.03;;
78908;SDS011;68298;37.368;127.108;2023-05-10T09:26:23;7.68;;;4.88;;
78908;SDS011;68298;37.368;127.108;2023-05-10T09:28:54;8.45;;;4.93;;
78908;SDS011;68298;37.368;127.108;2023-05-10T09:31:45;8.30;;;5.43;;
78908;SDS011;68298;37.368;127.108;2023-05-10T09:34:29;7.80;;;5.40;;
78908;SDS011;68298;37.368;127.108;2023-05-10T09:37:02;6.07;;;4.68;;
78908;SDS011;68298;37.368;127.108;2023-05-10T09:39:33;7.32;;;5.03;;
78908;SDS011;68298;37.368;127.108;2023-05-10T09:42:06;7.15;;;4.93;;
78908;SDS011;68298;37.368;127.108;2023-05-10T09:44:37;6.50;;;5.10;;
78908;SDS011;68298;37.368;127.108;2023-05-10T09:47:10;7.43;;;5.20;;
78908;SDS011;68298;37.368;127.108;2023-05-10T09:49:50;6.47;;;4.68;;
78908;SDS011;68298;37.368;127.108;2023-05-10T09:52:22;6.73;;;5.00;;
78908;SDS011;68298;37.368;127.108;2023-05-10T09:54:53;8.18;;;5.03;;
78908;SDS011;68298;37.368;127.108;2023-05-10T09:57:24;8.32;;;5.18;;
78908;SDS011;68298;37.368;127.108;2023-05-10T09:59:55;6.88;;;4.90;;
78908;SDS011;68298;37.368;127.108;2023-05-10T10:02:31;6.80;;;4.90;;
78908;SDS011;68298;37.368;127.108;2023-05-10T10:05:01;8.43;;;5.45;;
78908;SDS011;68298;37.368;127.108;2023-05-10T10:07:33;8.15;;;5.22;;
78908;SDS011;68298;37.368;127.108;2023-05-10T10:10:04;6.28;;;4.97;;
78908;SDS011;68298;37.368;127.108;2023-05-10T10:12:40;7.35;;;4.72;;
78908;SDS011;68298;37.368;127.108;2023-05-10T10:15:11;6.32;;;4.80;;
78908;SDS011;68298;37.368;127.108;2023-05-10T10:17:43;6.95;;;5.00;;
78908;SDS011;68298;37.368;127.108;2023-05-10T10:20:15;8.82;;;4.82;;
78908;SDS011;68298;37.368;127.108;2023-05-10T10:22:47;5.13;;;4.65;;
78908;SDS011;68298;37.368;127.108;2023-05-10T10:25:19;8.13;;;5.13;;
78908;SDS011;68298;37.368;127.108;2023-05-10T10:30:31;9.88;;;5.20;;
78908;SDS011;68298;37.368;127.108;2023-05-10T10:35:57;8.20;;;5.25;;
78908;SDS011;68298;37.368;127.108;2023-05-10T10:38:36;8.50;;;4.88;;
78908;SDS011;68298;37.368;127.108;2023-05-10T10:55:07;7.63;;;5.15;;
78908;SDS011;68298;37.368;127.108;2023-05-10T11:02:50;5.68;;;4.53;;
78908;SDS011;68298;37.368;127.108;2023-05-10T11:08:28;7.38;;;5.13;;
78908;SDS011;68298;37.368;127.108;2023-05-10T11:11:04;8.18;;;4.70;;
78908;SDS011;68298;37.368;127.108;2023-05-10T11:13:40;8.48;;;5.07;;
78908;SDS011;68298;37.368;127.108;2023-05-10T11:16:17;6.65;;;4.65;;
78908;SDS011;68298;37.368;127.108;2023-05-10T11:21:44;7.30;;;4.65;;
78908;SDS011;68298;37.368;127.108;2023-05-10T11:24:55;7.07;;;5.05;;
78908;SDS011;68298;37.368;127.108;2023-05-10T11:27:29;8.98;;;6.40;;
78908;SDS011;68298;37.368;127.108;2023-05-10T11:30:04;6.80;;;5.30;;
78908;SDS011;68298;37.368;127.108;2023-05-10T11:32:39;8.63;;;5.90;;
78908;SDS011;68298;37.368;127.108;2023-05-10T11:35:10;13.45;;;6.47;;
78908;SDS011;68298;37.368;127.108;2023-05-10T11:37:41;12.20;;;7.03;;
78908;SDS011;68298;37.368;127.108;2023-05-10T11:40:12;9.68;;;6.45;;
78908;SDS011;68298;37.368;127.108;2023-05-10T11:42:44;11.35;;;7.00;;
78908;SDS011;68298;37.368;127.108;2023-05-10T11:45:15;9.95;;;7.15;;
78908;SDS011;68298;37.368;127.108;2023-05-10T11:47:48;12.90;;;7.70;;
78908;SDS011;68298;37.368;127.108;2023-05-10T11:50:19;9.00;;;6.68;;
78908;SDS011;68298;37.368;127.108;2023-05-10T11:52:51;10.13;;;6.97;;
78908;SDS011;68298;37.368;127.108;2023-05-10T11:55:22;13.27;;;6.95;;
78908;SDS011;68298;37.368;127.108;2023-05-10T11:57:59;11.07;;;7.05;;
78908;SDS011;68298;37.368;127.108;2023-05-10T12:00:31;9.02;;;5.90;;
78908;SDS011;68298;37.368;127.108;2023-05-10T12:03:02;10.82;;;6.57;;
78908;SDS011;68298;37.368;127.108;2023-05-10T12:05:33;9.35;;;6.43;;
78908;SDS011;68298;37.368;127.108;2023-05-10T12:08:11;8.35;;;5.95;;
78908;SDS011;68298;37.368;127.108;2023-05-10T12:10:45;12.45;;;6.15;;
78908;SDS011;68298;37.368;127.108;2023-05-10T12:13:16;8.85;;;6.32;;
78908;SDS011;68298;37.368;127.108;2023-05-10T12:15:48;10.88;;;6.68;;
78908;SDS011;68298;37.368;127.108;2023-05-10T12:18:22;9.57;;;5.70;;
78908;SDS011;68298;37.368;127.108;2023-05-10T12:21:02;8.48;;;5.75;;
78908;SDS011;68298;37.368;127.108;2023-05-10T12:23:33;9.10;;;5.95;;
78908;SDS011;68298;37.368;127.108;2023-05-10T12:26:05;9.98;;;5.35;;
78908;SDS011;68298;37.368;127.108;2023-05-10T12:28:36;8.93;;;5.47;;
78908;SDS011;68298;37.368;127.108;2023-05-10T12:31:08;7.38;;;5.40;;
78908;SDS011;68298;37.368;127.108;2023-05-10T12:33:40;8.75;;;5.03;;
78908;SDS011;68298;37.368;127.108;2023-05-10T12:36:13;10.82;;;6.40;;
78908;SDS011;68298;37.368;127.108;2023-05-10T12:38:45;9.68;;;6.10;;
78908;SDS011;68298;37.368;127.108;2023-05-10T12:41:20;16.27;;;6.03;;
78908;SDS011;68298;37.368;127.108;2023-05-10T12:43:51;9.65;;;5.80;;
78908;SDS011;68298;37.368;127.108;2023-05-10T12:46:21;8.38;;;5.68;;
78908;SDS011;68298;37.368;127.108;2023-05-10T12:48:54;10.98;;;5.80;;
78908;SDS011;68298;37.368;127.108;2023-05-10T12:51:35;9.10;;;6.28;;
78908;SDS011;68298;37.368;127.108;2023-05-10T12:54:06;9.60;;;5.97;;
78908;SDS011;68298;37.368;127.108;2023-05-10T12:56:36;12.20;;;6.53;;
78908;SDS011;68298;37.368;127.108;2023-05-10T12:59:07;9.48;;;6.32;;
78908;SDS011;68298;37.368;127.108;2023-05-10T13:01:38;9.63;;;5.68;;
78908;SDS011;68298;37.368;127.108;2023-05-10T13:04:09;9.82;;;5.25;;
78908;SDS011;68298;37.368;127.108;2023-05-10T13:06:40;10.27;;;6.35;;
78908;SDS011;68298;37.368;127.108;2023-05-10T13:09:10;7.40;;;4.68;;
78908;SDS011;68298;37.368;127.108;2023-05-10T13:11:41;7.95;;;5.05;;
78908;SDS011;68298;37.368;127.108;2023-05-10T13:14:12;7.38;;;5.70;;
78908;SDS011;68298;37.368;127.108;2023-05-10T13:16:43;7.90;;;5.40;;
78908;SDS011;68298;37.368;127.108;2023-05-10T13:19:13;7.35;;;5.43;;
78908;SDS011;68298;37.368;127.108;2023-05-10T13:21:45;7.70;;;5.38;;
78908;SDS011;68298;37.368;127.108;2023-05-10T13:24:16;12.48;;;6.28;;
78908;SDS011;68298;37.368;127.108;2023-05-10T13:26:46;10.70;;;5.75;;
78908;SDS011;68298;37.368;127.108;2023-05-10T13:29:17;8.15;;;5.22;;
78908;SDS011;68298;37.368;127.108;2023-05-10T13:31:48;8.25;;;5.57;;
78908;SDS011;68298;37.368;127.108;2023-05-10T13:34:19;8.40;;;6.00;;
78908;SDS011;68298;37.368;127.108;2023-05-10T13:36:49;8.57;;;5.82;;
78908;SDS011;68298;37.368;127.108;2023-05-10T13:39:20;9.80;;;6.15;;
78908;SDS011;68298;37.368;127.108;2023-05-10T13:41:50;10.82;;;5.90;;
78908;SDS011;68298;37.368;127.108;2023-05-10T13:44:22;7.80;;;5.30;;
78908;SDS011;68298;37.368;127.108;2023-05-10T13:46:53;10.05;;;5.50;;
78908;SDS011;68298;37.368;127.108;2023-05-10T13:49:24;10.80;;;6.50;;
78908;SDS011;68298;37.368;127.108;2023-05-10T13:51:55;10.95;;;6.03;;
78908;SDS011;68298;37.368;127.108;2023-05-10T13:54:25;9.15;;;5.75;;
78908;SDS011;68298;37.368;127.108;2023-05-10T13:56:58;7.43;;;5.03;;
78908;SDS011;68298;37.368;127.108;2023-05-10T13:59:29;7.57;;;5.40;;
78908;SDS011;68298;37.368;127.108;2023-05-10T14:02:03;7.80;;;5.05;;
78908;SDS011;68298;37.368;127.108;2023-05-10T14:04:34;9.15;;;5.70;;
78908;SDS011;68298;37.368;127.108;2023-05-10T14:07:05;8.23;;;5.38;;
78908;SDS011;68298;37.368;127.108;2023-05-10T14:09:36;9.68;;;5.82;;
78908;SDS011;68298;37.368;127.108;2023-05-10T14:12:06;7.80;;;5.13;;
78908;SDS011;68298;37.368;127.108;2023-05-10T14:14:37;7.07;;;4.93;;
78908;SDS011;68298;37.368;127.108;2023-05-10T14:17:08;7.18;;;4.90;;
78908;SDS011;68298;37.368;127.108;2023-05-10T14:19:39;8.68;;;5.35;;
78908;SDS011;68298;37.368;127.108;2023-05-10T14:22:09;8.05;;;5.18;;
78908;SDS011;68298;37.368;127.108;2023-05-10T14:24:40;7.63;;;4.93;;
78908;SDS011;68298;37.368;127.108;2023-05-10T14:27:10;9.23;;;5.50;;
78908;SDS011;68298;37.368;127.108;2023-05-10T14:29:40;8.35;;;4.97;;
78908;SDS011;68298;37.368;127.108;2023-05-10T14:32:11;7.78;;;4.97;;
78908;SDS011;68298;37.368;127.108;2023-05-10T14:34:42;6.47;;;4.55;;
78908;SDS011;68298;37.368;127.108;2023-05-10T14:37:13;7.75;;;4.90;;
78908;SDS011;68298;37.368;127.108;2023-05-10T14:39:44;8.95;;;5.10;;
78908;SDS011;68298;37.368;127.108;2023-05-10T14:42:15;7.35;;;4.82;;
78908;SDS011;68298;37.368;127.108;2023-05-10T14:44:46;8.00;;;4.95;;
78908;SDS011;68298;37.368;127.108;2023-05-10T14:47:17;7.10;;;4.68;;
78908;SDS011;68298;37.368;127.108;2023-05-10T14:49:48;7.68;;;4.63;;
78908;SDS011;68298;37.368;127.108;2023-05-10T14:52:18;9.20;;;5.20;;
78908;SDS011;68298;37.368;127.108;2023-05-10T14:54:49;7.97;;;5.35;;
78908;SDS011;68298;37.368;127.108;2023-05-10T14:57:20;8.55;;;5.07;;
78908;SDS011;68298;37.368;127.108;2023-05-10T14:59:50;8.52;;;5.07;;
78908;SDS011;68298;37.368;127.108;2023-05-10T15:02:21;8.98;;;4.70;;
78908;SDS011;68298;37.368;127.108;2023-05-10T15:04:52;8.65;;;5.40;;
78908;SDS011;68298;37.368;127.108;2023-05-10T15:07:23;8.05;;;4.78;;
78908;SDS011;68298;37.368;127.108;2023-05-10T15:09:54;7.43;;;4.90;;
78908;SDS011;68298;37.368;127.108;2023-05-10T15:12:25;6.43;;;4.72;;
78908;SDS011;68298;37.368;127.108;2023-05-10T15:14:55;8.65;;;5.38;;
78908;SDS011;68298;37.368;127.108;2023-05-10T15:17:26;7.55;;;5.20;;
78908;SDS011;68298;37.368;127.108;2023-05-10T15:19:56;7.55;;;4.97;;
78908;SDS011;68298;37.368;127.108;2023-05-10T15:22:26;7.13;;;4.88;;
78908;SDS011;68298;37.368;127.108;2023-05-10T15:24:59;7.67;;;5.30;;
78908;SDS011;68298;37.368;127.108;2023-05-10T15:27:29;8.95;;;5.10;;
78908;SDS011;68298;37.368;127.108;2023-05-10T15:30:00;9.32;;;5.50;;
78908;SDS011;68298;37.368;127.108;2023-05-10T15:32:30;9.23;;;5.03;;